createdAt,value
2023-06-13T00:00:51.785Z,15.43
2023-06-13T00:01:51.267Z,15.41
2023-06-13T00:02:52.383Z,15.46
2023-06-13T00:03:51.373Z,15.35
2023-06-13T00:05:51.509Z,15.43
2023-06-13T00:06:50.946Z,15.27
2023-06-13T00:07:51.309Z,15.21
2023-06-13T00:08:50.727Z,15.39
2023-06-13T00:09:50.651Z,15.27
2023-06-13T00:10:50.620Z,15.35
2023-06-13T00:11:50.510Z,15.41
2023-06-13T00:12:50.669Z,15.34
2023-06-13T00:13:50.337Z,15.28
2023-06-13T00:14:50.261Z,15.30
2023-06-13T00:15:50.190Z,15.18
2023-06-13T00:16:50.183Z,15.13
2023-06-13T00:17:50.116Z,15.21
2023-06-13T00:18:50.056Z,15.05
2023-06-13T00:19:50.227Z,15.03
2023-06-13T00:20:50.140Z,15.10
2023-06-13T00:25:49.408Z,14.97
2023-06-13T00:26:49.331Z,15.06
2023-06-13T00:27:49.254Z,15.12
2023-06-13T00:28:49.177Z,15.02
2023-06-13T00:29:49.095Z,14.98
2023-06-13T00:30:49.067Z,14.91
2023-06-13T00:31:48.939Z,14.95
2023-06-13T00:32:49.020Z,14.91
2023-06-13T00:33:48.790Z,14.90
2023-06-13T00:34:48.715Z,14.98
2023-06-13T00:35:48.631Z,14.95
2023-06-13T00:36:48.558Z,14.90
2023-06-13T00:37:48.516Z,14.87
2023-06-13T00:38:48.395Z,14.80
2023-06-13T00:39:48.317Z,14.88
2023-06-13T00:40:48.249Z,14.87
2023-06-13T00:41:48.162Z,14.75
2023-06-13T00:42:48.088Z,14.83
2023-06-13T00:43:48.020Z,14.74
2023-06-13T00:44:47.928Z,14.71
2023-06-13T00:45:47.851Z,14.74
2023-06-13T00:46:47.816Z,14.78
2023-06-13T00:47:47.730Z,14.67
2023-06-13T00:48:47.636Z,14.61
2023-06-13T00:49:47.541Z,14.74
2023-06-13T00:50:47.707Z,14.71
2023-06-13T00:51:47.384Z,14.59
2023-06-13T00:52:47.302Z,14.54
2023-06-13T00:53:47.226Z,14.56
2023-06-13T00:54:47.147Z,14.61
2023-06-13T00:55:47.128Z,14.64
2023-06-13T00:56:47.002Z,14.72
2023-06-13T00:57:46.913Z,14.85
2023-06-13T00:58:46.834Z,15.03
2023-06-13T00:59:46.767Z,15.02
2023-06-13T01:00:46.928Z,15.02
2023-06-13T01:01:46.762Z,15.09
2023-06-13T01:02:46.546Z,15.15
2023-06-13T01:03:46.448Z,15.16
2023-06-13T01:04:46.712Z,15.15
2023-06-13T01:05:46.302Z,15.13
2023-06-13T01:06:46.227Z,15.18
2023-06-13T01:07:46.138Z,15.18
2023-06-13T01:08:46.213Z,15.15
2023-06-13T01:09:46.182Z,15.12
2023-06-13T01:10:45.900Z,15.09
2023-06-13T01:11:45.826Z,14.95
2023-06-13T01:12:45.744Z,14.95
2023-06-13T01:13:46.119Z,14.95
2023-06-13T01:14:45.589Z,15.02
2023-06-13T01:15:45.511Z,14.88
2023-06-13T01:16:45.496Z,14.88
2023-06-13T01:17:45.431Z,14.87
2023-06-13T01:18:45.289Z,14.69
2023-06-13T01:19:45.206Z,14.78
2023-06-13T01:20:45.146Z,14.69
2023-06-13T01:21:45.044Z,14.71
2023-06-13T01:22:44.967Z,14.60
2023-06-13T01:23:45.430Z,14.39
2023-06-13T01:24:44.816Z,14.34
2023-06-13T01:25:44.733Z,14.38
2023-06-13T01:26:44.868Z,14.31
2023-06-13T01:27:44.574Z,14.27
2023-06-13T01:28:44.498Z,14.23
2023-06-13T01:29:44.722Z,14.23
2023-06-13T01:30:44.376Z,14.14
2023-06-13T01:31:44.361Z,14.20
2023-06-13T01:32:44.266Z,14.13
2023-06-13T01:33:44.105Z,14.13
2023-06-13T01:34:44.027Z,14.10
2023-06-13T01:35:43.950Z,14.03
2023-06-13T01:36:43.895Z,13.95
2023-06-13T01:38:43.722Z,13.89
2023-06-13T01:39:43.676Z,13.96
2023-06-13T01:41:44.121Z,13.92
2023-06-13T01:43:43.416Z,13.99
2023-06-13T01:45:43.230Z,13.94
2023-06-13T01:46:43.340Z,13.86
2023-06-13T01:47:55.988Z,13.86
2023-06-13T01:48:43.182Z,13.77
2023-06-13T01:49:42.901Z,13.70
2023-06-13T01:50:42.781Z,13.74
2023-06-13T01:51:42.693Z,13.71
2023-06-13T01:52:42.635Z,13.68
2023-06-13T01:53:42.539Z,13.66
2023-06-13T01:54:42.672Z,13.63
2023-06-13T01:55:42.381Z,13.55
2023-06-13T01:56:42.340Z,13.47
2023-06-13T01:57:42.220Z,13.44
2023-06-13T01:58:42.180Z,13.43
2023-06-13T01:59:42.303Z,13.40
2023-06-13T02:00:41.985Z,13.33
2023-06-13T02:01:41.937Z,13.27
2023-06-13T02:02:41.950Z,13.25
2023-06-13T02:03:41.782Z,13.36
2023-06-13T02:04:41.670Z,13.44
2023-06-13T02:05:41.602Z,13.27
2023-06-13T02:06:41.549Z,13.38
2023-06-13T02:07:41.433Z,13.29
2023-06-13T02:08:41.408Z,13.41
2023-06-13T02:09:41.319Z,13.38
2023-06-13T02:10:41.231Z,13.45
2023-06-13T02:11:41.353Z,13.45
2023-06-13T02:12:41.288Z,13.48
2023-06-13T02:13:41.013Z,13.40
2023-06-13T02:15:40.846Z,13.24
2023-06-13T02:16:41.308Z,13.28
2023-06-13T02:18:40.798Z,13.43
2023-06-13T02:19:40.940Z,13.38
2023-06-13T02:20:40.697Z,13.45
2023-06-13T02:21:40.966Z,13.43
2023-06-13T02:22:40.484Z,13.59
2023-06-13T02:23:40.241Z,13.45
2023-06-13T02:24:40.345Z,13.47
2023-06-13T02:25:40.037Z,13.44
2023-06-13T02:26:39.930Z,13.45
2023-06-13T02:27:39.885Z,13.45
2023-06-13T02:28:39.812Z,13.41
2023-06-13T02:29:39.759Z,13.38
2023-06-13T02:30:39.645Z,13.41
2023-06-13T02:31:39.559Z,13.37
2023-06-13T02:32:39.452Z,13.25
2023-06-13T02:33:39.574Z,13.19
2023-06-13T02:34:39.326Z,13.17
2023-06-13T02:35:39.210Z,13.15
2023-06-13T02:36:39.135Z,13.21
2023-06-13T02:37:39.060Z,13.25
2023-06-13T02:38:39.008Z,13.28
2023-06-13T02:39:38.930Z,13.25
2023-06-13T02:40:38.886Z,13.24
2023-06-13T02:41:38.975Z,13.25
2023-06-13T02:42:38.894Z,13.21
2023-06-13T02:43:38.671Z,13.21
2023-06-13T02:45:38.677Z,13.22
2023-06-13T02:46:38.361Z,13.21
2023-06-13T02:47:38.363Z,13.19
2023-06-13T02:48:38.523Z,13.07
2023-06-13T02:49:38.136Z,13.04
2023-06-13T02:50:38.028Z,13.06
2023-06-13T02:52:37.865Z,12.79
2023-06-13T02:53:37.788Z,12.86
2023-06-13T02:54:37.744Z,12.82
2023-06-13T02:55:37.663Z,12.74
2023-06-13T02:56:37.616Z,12.78
2023-06-13T02:57:37.470Z,12.71
2023-06-13T02:58:37.426Z,12.74
2023-06-13T03:00:37.248Z,12.67
2023-06-13T03:01:37.198Z,12.73
2023-06-13T03:02:37.143Z,12.74
2023-06-13T03:03:37.035Z,12.70
2023-06-13T03:04:36.936Z,12.74
2023-06-13T03:05:36.871Z,12.81
2023-06-13T03:06:36.754Z,12.71
2023-06-13T03:07:36.677Z,12.74
2023-06-13T03:08:36.603Z,12.86
2023-06-13T03:09:36.527Z,12.73
2023-06-13T03:10:36.440Z,12.84
2023-06-13T03:11:36.557Z,12.69
2023-06-13T03:12:36.296Z,12.73
2023-06-13T03:13:36.209Z,12.73
2023-06-13T03:14:36.124Z,12.71
2023-06-13T03:15:36.050Z,12.73
2023-06-13T03:16:36.031Z,12.81
2023-06-13T03:17:35.950Z,12.81
2023-06-13T03:18:35.800Z,12.92
2023-06-13T03:19:35.732Z,13.00
2023-06-13T03:20:35.640Z,12.97
2023-06-13T03:21:35.561Z,12.88
2023-06-13T03:22:35.978Z,12.92
2023-06-13T03:23:35.477Z,12.81
2023-06-13T03:24:35.325Z,12.81
2023-06-13T03:25:35.247Z,12.81
2023-06-13T03:26:35.161Z,12.89
2023-06-13T03:27:35.099Z,12.92
2023-06-13T03:28:35.023Z,12.99
2023-06-13T03:29:34.931Z,13.07
2023-06-13T03:30:34.937Z,13.07
2023-06-13T03:31:34.773Z,13.00
2023-06-13T03:32:34.736Z,13.10
2023-06-13T03:33:34.603Z,13.10
2023-06-13T03:34:34.528Z,13.04
2023-06-13T03:35:34.445Z,13.07
2023-06-13T03:36:34.365Z,13.07
2023-06-13T03:37:34.284Z,13.09
2023-06-13T03:38:34.207Z,13.15
2023-06-13T03:39:34.276Z,13.09
2023-06-13T03:40:34.449Z,13.04
2023-06-13T03:41:34.011Z,13.11
2023-06-13T03:42:33.888Z,13.07
2023-06-13T03:43:33.809Z,13.03
2023-06-13T03:44:33.744Z,13.07
2023-06-13T03:45:34.135Z,13.11
2023-06-13T03:46:33.566Z,13.09
2023-06-13T03:47:33.656Z,13.09
2023-06-13T03:48:33.921Z,13.22
2023-06-13T03:49:33.454Z,13.17
2023-06-13T03:50:33.248Z,13.17
2023-06-13T03:51:33.178Z,13.17
2023-06-13T03:52:33.088Z,13.15
2023-06-13T03:53:33.013Z,13.15
2023-06-13T03:54:32.931Z,13.15
2023-06-13T03:55:32.859Z,13.10
2023-06-13T03:56:32.784Z,13.21
2023-06-13T03:57:32.695Z,13.17
2023-06-13T03:58:32.612Z,13.19
2023-06-13T03:59:32.698Z,13.19
2023-06-13T04:00:32.476Z,13.18
2023-06-13T04:01:32.376Z,13.10
2023-06-13T04:02:32.375Z,13.09
2023-06-13T04:03:32.333Z,13.06
2023-06-13T04:04:32.143Z,13.09
2023-06-13T04:05:32.082Z,13.15
2023-06-13T04:06:31.994Z,13.22
2023-06-13T04:07:31.898Z,13.11
2023-06-13T04:08:31.819Z,13.21
2023-06-13T04:09:31.786Z,13.21
2023-06-13T04:10:31.657Z,13.24
2023-06-13T04:11:31.581Z,13.24
2023-06-13T04:12:31.530Z,13.22
2023-06-13T04:13:31.630Z,13.18
2023-06-13T04:14:31.340Z,13.06
2023-06-13T04:17:31.169Z,13.17
2023-06-13T04:18:31.077Z,13.11
2023-06-13T04:19:30.948Z,13.07
2023-06-13T04:20:30.867Z,13.17
2023-06-13T04:21:31.035Z,13.04
2023-06-13T04:22:30.704Z,13.03
2023-06-13T04:23:30.983Z,13.10
2023-06-13T04:24:31.063Z,13.06
2023-06-13T04:25:30.466Z,13.11
2023-06-13T04:26:30.391Z,13.09
2023-06-13T04:27:30.307Z,13.07
2023-06-13T04:28:30.477Z,13.19
2023-06-13T04:29:30.686Z,13.18
2023-06-13T04:30:30.081Z,13.17
2023-06-13T04:31:30.036Z,13.24
2023-06-13T04:33:30.305Z,13.28
2023-06-13T04:34:29.787Z,13.24
2023-06-13T04:37:29.533Z,13.44
2023-06-13T04:38:29.434Z,13.40
2023-06-13T04:39:29.366Z,13.47
2023-06-13T04:40:29.275Z,13.47
2023-06-13T04:41:29.195Z,13.50
2023-06-13T04:42:29.118Z,13.56
2023-06-13T04:43:29.036Z,13.58
2023-06-13T04:44:28.966Z,13.61
2023-06-13T04:45:28.883Z,13.62
2023-06-13T04:46:28.839Z,13.70
2023-06-13T04:47:38.318Z,13.73
2023-06-13T04:48:28.673Z,13.78
2023-06-13T04:49:28.584Z,13.80
2023-06-13T04:50:28.490Z,13.80
2023-06-13T04:51:28.556Z,13.78
2023-06-13T04:52:28.330Z,13.98
2023-06-13T04:53:28.244Z,13.89
2023-06-13T04:54:28.167Z,13.95
2023-06-13T04:55:28.091Z,13.99
2023-06-13T04:56:28.009Z,13.96
2023-06-13T04:57:27.932Z,14.05
2023-06-13T04:58:27.852Z,14.10
2023-06-13T04:59:27.776Z,14.13
2023-06-13T05:00:27.707Z,14.24
2023-06-13T05:01:27.702Z,14.21
2023-06-13T05:02:27.852Z,14.29
2023-06-13T05:03:27.470Z,14.32
2023-06-13T05:04:27.392Z,14.34
2023-06-13T05:05:27.322Z,14.38
2023-06-13T05:06:27.265Z,14.46
2023-06-13T05:07:27.154Z,14.44
2023-06-13T05:08:27.296Z,14.46
2023-06-13T05:09:27.000Z,14.53
2023-06-13T05:10:26.917Z,14.67
2023-06-13T05:11:26.937Z,14.60
2023-06-13T05:12:26.771Z,14.59
2023-06-13T05:13:26.680Z,14.65
2023-06-13T05:14:26.604Z,14.69
2023-06-13T05:15:26.526Z,14.72
2023-06-13T05:16:26.548Z,14.68
2023-06-13T05:17:26.401Z,14.71
2023-06-13T05:18:26.317Z,14.78
2023-06-13T05:19:26.221Z,14.79
2023-06-13T05:20:26.132Z,14.85
2023-06-13T05:21:26.283Z,14.75
2023-06-13T05:22:25.979Z,14.90
2023-06-13T05:23:25.901Z,14.90
2023-06-13T05:24:25.916Z,14.93
2023-06-13T05:25:28.166Z,15.24
2023-06-13T05:26:25.682Z,15.39
2023-06-13T05:27:25.625Z,15.33
2023-06-13T05:28:25.507Z,15.42
2023-06-13T05:29:25.469Z,15.57
2023-06-13T05:30:25.360Z,15.51
2023-06-13T05:31:25.369Z,15.63
2023-06-13T05:32:25.263Z,15.64
2023-06-13T05:33:25.164Z,15.68
2023-06-13T05:34:25.046Z,15.83
2023-06-13T05:35:25.020Z,15.89
2023-06-13T05:36:24.906Z,16.03
2023-06-13T05:37:24.841Z,16.07
2023-06-13T05:38:24.752Z,15.99
2023-06-13T05:39:24.659Z,16.14
2023-06-13T05:40:24.577Z,16.22
2023-06-13T05:41:24.508Z,16.34
2023-06-13T05:42:24.673Z,16.34
2023-06-13T05:43:24.370Z,16.38
2023-06-13T05:44:26.969Z,16.48
2023-06-13T05:45:24.444Z,16.48
2023-06-13T05:46:24.117Z,16.60
2023-06-13T05:47:24.097Z,16.70
2023-06-13T05:48:24.041Z,16.84
2023-06-13T05:49:23.887Z,16.90
2023-06-13T05:50:23.808Z,17.00
2023-06-13T05:51:23.734Z,17.08
2023-06-13T05:52:24.493Z,17.23
2023-06-13T05:53:23.611Z,17.15
2023-06-13T05:54:23.510Z,17.28
2023-06-13T05:55:23.429Z,17.33
2023-06-13T05:56:23.348Z,17.29
2023-06-13T05:57:23.295Z,17.51
2023-06-13T05:58:23.197Z,17.66
2023-06-13T05:59:23.117Z,17.76
2023-06-13T06:00:23.040Z,17.79
2023-06-13T06:01:22.972Z,17.98
2023-06-13T06:02:23.150Z,17.94
2023-06-13T06:03:22.892Z,18.13
2023-06-13T06:04:22.798Z,18.16
2023-06-13T06:05:22.656Z,18.19
2023-06-13T06:06:22.581Z,18.19
2023-06-13T06:07:22.528Z,18.29
2023-06-13T06:08:22.428Z,18.39
2023-06-13T06:09:24.700Z,18.32
2023-06-13T06:10:22.275Z,18.37
2023-06-13T06:11:22.208Z,18.46
2023-06-13T06:12:22.126Z,18.49
2023-06-13T06:13:22.253Z,18.61
2023-06-13T06:14:21.972Z,18.46
2023-06-13T06:15:21.918Z,18.49
2023-06-13T06:16:21.817Z,18.53
2023-06-13T06:17:21.860Z,18.62
2023-06-13T06:18:21.899Z,18.61
2023-06-13T06:19:21.597Z,18.69
2023-06-13T06:20:21.546Z,18.71
2023-06-13T06:21:21.444Z,18.68
2023-06-13T06:22:21.367Z,18.69
2023-06-13T06:23:21.295Z,18.73
2023-06-13T06:24:21.258Z,18.73
2023-06-13T06:25:24.365Z,18.84
2023-06-13T06:26:21.080Z,18.94
2023-06-13T06:27:20.994Z,18.94
2023-06-13T06:28:20.909Z,19.08
2023-06-13T06:29:20.838Z,19.20
2023-06-13T06:30:20.756Z,19.39
2023-06-13T06:31:20.833Z,19.48
2023-06-13T06:32:20.629Z,19.42
2023-06-13T06:33:20.535Z,19.57
2023-06-13T06:34:20.455Z,19.63
2023-06-13T06:35:20.380Z,19.64
2023-06-13T06:36:20.503Z,19.51
2023-06-13T06:37:20.479Z,19.58
2023-06-13T06:38:20.158Z,19.64
2023-06-13T06:39:20.081Z,19.68
2023-06-13T06:40:20.004Z,19.58
2023-06-13T06:41:19.960Z,19.58
2023-06-13T06:42:19.852Z,19.71
2023-06-13T06:43:19.781Z,19.75
2023-06-13T06:44:29.036Z,19.78
2023-06-13T06:45:19.632Z,19.69
2023-06-13T06:46:19.601Z,19.91
2023-06-13T06:47:19.478Z,19.94
2023-06-13T06:48:19.416Z,20.00
2023-06-13T06:49:19.326Z,19.97
2023-06-13T06:50:19.256Z,20.08
2023-06-13T06:51:19.182Z,20.00
2023-06-13T06:52:19.101Z,20.06
2023-06-13T06:53:19.035Z,20.10
2023-06-13T06:54:18.956Z,20.08
2023-06-13T06:55:18.876Z,20.13
2023-06-13T06:56:18.807Z,20.10
2023-06-13T06:57:20.520Z,20.12
2023-06-13T06:58:18.656Z,20.23
2023-06-13T06:59:18.578Z,20.23
2023-06-13T07:00:18.811Z,20.27
2023-06-13T07:01:18.443Z,20.30
2023-06-13T07:02:18.704Z,20.37
2023-06-13T07:03:18.297Z,20.51
2023-06-13T07:04:18.222Z,20.49
2023-06-13T07:05:18.129Z,20.49
2023-06-13T07:06:18.060Z,20.62
2023-06-13T07:07:17.990Z,20.51
2023-06-13T07:08:17.941Z,20.66
2023-06-13T07:09:17.941Z,20.74
2023-06-13T07:10:18.027Z,20.82
2023-06-13T07:11:17.873Z,20.87
2023-06-13T07:12:17.618Z,20.94
2023-06-13T07:13:17.575Z,20.83
2023-06-13T07:14:17.463Z,20.94
2023-06-13T07:15:17.394Z,20.94
2023-06-13T07:16:17.358Z,20.93
2023-06-13T07:17:17.251Z,20.89
2023-06-13T07:18:17.172Z,20.86
2023-06-13T07:19:17.467Z,20.99
2023-06-13T07:20:17.230Z,20.93
2023-06-13T07:21:16.956Z,20.99
2023-06-13T07:22:17.070Z,21.02
2023-06-13T07:23:16.799Z,21.09
2023-06-13T07:24:16.749Z,21.17
2023-06-13T07:25:16.662Z,21.19
2023-06-13T07:26:16.574Z,21.35
2023-06-13T07:27:16.502Z,21.31
2023-06-13T07:28:16.831Z,21.41
2023-06-13T07:29:16.406Z,21.51
2023-06-13T07:30:16.624Z,21.48
2023-06-13T07:31:16.213Z,21.35
2023-06-13T07:32:16.388Z,21.16
2023-06-13T07:33:16.106Z,21.17
2023-06-13T07:34:34.649Z,21.19
2023-06-13T07:35:16.056Z,21.27
2023-06-13T07:36:15.835Z,21.31
2023-06-13T07:37:15.758Z,21.35
2023-06-13T07:38:15.685Z,21.48
2023-06-13T07:39:16.108Z,21.30
2023-06-13T07:40:15.918Z,21.30
2023-06-13T07:41:15.480Z,21.46
2023-06-13T07:42:15.391Z,21.53
2023-06-13T07:43:15.314Z,21.51
2023-06-13T07:44:15.261Z,21.57
2023-06-13T07:45:15.184Z,21.53
2023-06-13T07:46:15.227Z,21.61
2023-06-13T07:47:15.030Z,21.61
2023-06-13T07:48:14.998Z,21.79
2023-06-13T07:49:14.866Z,21.86
2023-06-13T07:50:15.125Z,21.98
2023-06-13T07:51:14.721Z,22.08
2023-06-13T07:52:14.645Z,21.97
2023-06-13T07:53:14.575Z,22.02
2023-06-13T07:54:14.495Z,21.91
2023-06-13T07:55:14.821Z,21.91
2023-06-13T07:56:14.347Z,21.66
2023-06-13T07:57:33.646Z,21.61
2023-06-13T07:58:14.198Z,21.74
2023-06-13T07:59:14.129Z,21.75
2023-06-13T08:00:14.712Z,21.91
2023-06-13T08:01:14.022Z,21.94
2023-06-13T08:02:13.917Z,21.89
2023-06-13T08:03:14.006Z,21.82
2023-06-13T08:04:13.922Z,21.85
2023-06-13T08:05:13.774Z,21.91
2023-06-13T08:06:13.609Z,21.91
2023-06-13T08:07:13.539Z,21.85
2023-06-13T08:08:13.461Z,21.92
2023-06-13T08:09:13.448Z,21.92
2023-06-13T08:10:13.617Z,21.92
2023-06-13T08:11:13.242Z,21.89
2023-06-13T08:12:13.166Z,21.84
2023-06-13T08:13:13.121Z,21.76
2023-06-13T08:14:13.020Z,21.98
2023-06-13T08:15:12.944Z,22.07
2023-06-13T08:16:12.880Z,22.22
2023-06-13T08:17:12.816Z,22.23
2023-06-13T08:18:12.728Z,22.16
2023-06-13T08:19:13.050Z,22.30
2023-06-13T08:20:12.972Z,22.20
2023-06-13T08:21:12.906Z,22.12
2023-06-13T08:22:12.435Z,22.10
2023-06-13T08:23:12.357Z,22.20
2023-06-13T08:24:12.340Z,22.17
2023-06-13T08:25:12.230Z,22.41
2023-06-13T08:26:12.137Z,22.65
2023-06-13T08:27:12.114Z,22.60
2023-06-13T08:28:11.987Z,22.32
2023-06-13T08:29:11.975Z,22.32
2023-06-13T08:30:11.998Z,22.30
2023-06-13T08:31:39.601Z,22.31
2023-06-13T08:32:11.782Z,22.32
2023-06-13T08:33:11.959Z,22.13
2023-06-13T08:34:13.463Z,22.34
2023-06-13T08:35:11.658Z,22.34
2023-06-13T08:36:27.242Z,22.30
2023-06-13T08:37:11.332Z,22.32
2023-06-13T08:38:11.261Z,22.30
2023-06-13T08:39:11.269Z,22.24
2023-06-13T08:40:11.631Z,22.22
2023-06-13T08:41:11.045Z,22.32
2023-06-13T08:42:10.961Z,22.20
2023-06-13T08:43:10.894Z,22.34
2023-06-13T08:44:10.825Z,22.52
2023-06-13T08:45:10.739Z,22.50
2023-06-13T08:46:10.706Z,22.39
2023-06-13T08:47:27.198Z,22.46
2023-06-13T08:48:10.763Z,22.62
2023-06-13T08:49:10.469Z,22.71
2023-06-13T08:50:10.371Z,22.67
2023-06-13T08:51:10.501Z,22.69
2023-06-13T08:52:10.229Z,22.72
2023-06-13T08:53:10.158Z,22.69
2023-06-13T08:54:11.893Z,22.67
2023-06-13T08:55:31.121Z,22.65
2023-06-13T08:56:10.051Z,22.81
2023-06-13T08:57:09.861Z,22.89
2023-06-13T08:58:09.783Z,22.77
2023-06-13T08:59:09.768Z,22.69
2023-06-13T09:00:09.634Z,22.84
2023-06-13T09:01:09.580Z,22.97
2023-06-13T09:02:09.511Z,22.99
2023-06-13T09:03:09.468Z,23.05
2023-06-13T09:04:09.501Z,23.08
2023-06-13T09:05:09.303Z,23.15
2023-06-13T09:06:09.203Z,23.14
2023-06-13T09:07:09.159Z,23.05
2023-06-13T09:08:29.388Z,23.11
2023-06-13T09:09:08.992Z,23.11
2023-06-13T09:10:08.906Z,23.18
2023-06-13T09:11:08.833Z,23.14
2023-06-13T09:12:08.856Z,22.97
2023-06-13T09:13:08.700Z,22.93
2023-06-13T09:14:08.977Z,22.83
2023-06-13T09:15:08.628Z,22.83
2023-06-13T09:16:08.481Z,23.05
2023-06-13T09:17:08.840Z,23.05
2023-06-13T09:18:08.324Z,22.99
2023-06-13T09:19:08.249Z,22.96
2023-06-13T09:20:08.188Z,22.94
2023-06-13T09:21:08.574Z,22.96
2023-06-13T09:22:08.033Z,22.92
2023-06-13T09:23:07.960Z,22.71
2023-06-13T09:24:07.933Z,22.83
2023-06-13T09:25:07.810Z,22.90
2023-06-13T09:26:07.736Z,23.04
2023-06-13T09:27:07.723Z,23.09
2023-06-13T09:28:07.599Z,23.23
2023-06-13T09:29:21.313Z,23.22
2023-06-13T09:30:07.443Z,23.24
2023-06-13T09:31:07.446Z,23.42
2023-06-13T09:32:07.653Z,23.46
2023-06-13T09:33:07.228Z,23.40
2023-06-13T09:34:07.171Z,23.43
2023-06-13T09:35:07.080Z,23.38
2023-06-13T09:36:07.112Z,23.40
2023-06-13T09:37:06.955Z,23.23
2023-06-13T09:38:06.865Z,23.11
2023-06-13T09:39:06.800Z,23.18
2023-06-13T09:41:06.642Z,23.60
2023-06-13T09:42:06.579Z,23.52
2023-06-13T09:43:06.503Z,23.38
2023-06-13T09:44:06.431Z,23.38
2023-06-13T09:45:06.408Z,23.42
2023-06-13T09:46:06.303Z,23.43
2023-06-13T09:47:06.204Z,23.42
2023-06-13T09:48:06.220Z,23.43
2023-06-13T09:49:06.080Z,23.27
2023-06-13T09:50:05.987Z,23.08
2023-06-13T09:51:05.956Z,23.11
2023-06-13T09:52:05.902Z,23.37
2023-06-13T09:53:05.872Z,23.61
2023-06-13T09:54:05.715Z,23.58
2023-06-13T10:18:39.307Z,23.95
2023-06-13T10:19:39.213Z,23.89
2023-06-13T10:34:38.164Z,24.05
2023-06-13T11:30:52.557Z,25.30
2023-06-13T11:31:52.555Z,25.45
2023-06-13T11:32:52.493Z,25.60
2023-06-13T11:33:52.535Z,25.57
2023-06-13T11:34:52.347Z,25.60
2023-06-13T11:35:52.197Z,25.72
2023-06-13T11:36:52.165Z,25.82
2023-06-13T11:37:52.047Z,26.08
2023-06-13T11:38:51.982Z,26.12
2023-06-13T11:41:14.419Z,26.43
2023-06-13T11:42:14.349Z,26.46
2023-06-13T11:43:14.283Z,26.79
2023-06-13T11:44:14.218Z,27.26
2023-06-13T11:45:14.205Z,27.72
2023-06-13T11:46:14.200Z,27.67
2023-06-13T11:47:14.339Z,27.46
2023-06-13T11:49:13.951Z,28.26
2023-06-13T11:50:14.695Z,28.62
2023-06-13T11:51:16.372Z,28.87
2023-06-13T11:53:13.960Z,27.79
2023-06-13T11:54:11.274Z,27.80
2023-06-13T11:55:11.202Z,28.11
2023-06-13T11:56:53.954Z,28.91
2023-06-13T11:57:53.561Z,29.07
2023-06-13T11:58:53.561Z,28.98
2023-06-13T11:59:53.432Z,28.94
2023-06-13T12:00:53.422Z,28.90
2023-06-13T12:02:42.503Z,28.83
2023-06-13T12:03:40.887Z,28.06
2023-06-13T12:04:40.748Z,28.31
2023-06-13T12:05:40.618Z,28.61
2023-06-13T12:06:40.554Z,28.54
2023-06-13T12:07:40.494Z,29.14
2023-06-13T12:08:40.435Z,29.43
2023-06-13T12:09:40.369Z,29.46
2023-06-13T12:10:40.309Z,29.78
2023-06-13T12:11:40.280Z,29.89
2023-06-13T12:12:40.183Z,29.23
2023-06-13T12:13:40.176Z,28.93
2023-06-13T12:15:40.040Z,28.31
2023-06-13T12:17:40.546Z,27.53
2023-06-13T12:18:39.839Z,28.04
2023-06-13T12:19:39.756Z,28.01
2023-06-13T12:20:39.693Z,28.36
2023-06-13T12:21:39.633Z,28.71
2023-06-13T12:22:39.583Z,29.18
2023-06-13T12:24:37.999Z,30.30
2023-06-13T12:25:37.838Z,30.79
2023-06-13T12:26:37.777Z,31.11
2023-06-13T12:27:37.915Z,31.02
2023-06-13T12:28:37.652Z,31.14
2023-06-13T12:29:37.590Z,30.94
2023-06-13T12:30:37.546Z,31.05
2023-06-13T12:31:37.607Z,29.38
2023-06-13T12:32:38.676Z,29.50
2023-06-13T12:35:37.743Z,29.46
2023-06-13T12:36:37.211Z,30.17
2023-06-13T12:38:38.272Z,31.16
2023-06-13T12:39:37.007Z,30.83
2023-06-13T12:40:36.999Z,29.63
2023-06-13T12:41:37.519Z,30.05
2023-06-13T12:42:39.444Z,29.95
2023-06-13T12:43:36.875Z,28.88
2023-06-13T12:44:36.773Z,29.26
2023-06-13T12:45:36.643Z,29.55
2023-06-13T12:46:36.604Z,29.56
2023-06-13T12:47:36.571Z,29.56
2023-06-13T12:48:36.466Z,29.66
2023-06-13T12:49:36.411Z,29.84
2023-06-13T12:50:36.358Z,28.88
2023-06-13T12:51:36.310Z,28.68
2023-06-13T12:52:36.233Z,29.18
2023-06-13T12:53:36.322Z,29.77
2023-06-13T12:54:36.111Z,30.46
2023-06-13T12:55:36.049Z,31.08
2023-06-13T12:56:36.000Z,31.26
2023-06-13T12:57:35.936Z,31.23
2023-06-13T12:58:35.888Z,31.07
2023-06-13T12:59:35.814Z,31.42
2023-06-13T13:00:35.757Z,31.84
2023-06-13T13:01:36.174Z,31.61
2023-06-13T13:03:35.675Z,31.60
2023-06-13T13:04:36.537Z,31.67
2023-06-13T13:05:35.463Z,32.11
2023-06-13T13:06:35.406Z,32.39
2023-06-13T13:07:35.374Z,32.27
2023-06-13T13:08:35.289Z,32.13
2023-06-13T13:09:35.275Z,30.40
2023-06-13T13:10:35.307Z,29.38
2023-06-13T13:11:35.383Z,29.90
2023-06-13T13:15:36.674Z,30.81
2023-06-13T13:17:38.831Z,30.44
2023-06-13T13:18:34.743Z,30.36
2023-06-13T13:19:34.649Z,29.63
2023-06-13T13:20:34.591Z,30.03
2023-06-13T13:21:34.531Z,30.12
2023-06-13T13:22:34.500Z,29.19
2023-06-13T13:23:34.446Z,28.76
2023-06-13T13:24:36.516Z,29.37
2023-06-13T13:25:34.298Z,30.06
2023-06-13T13:26:34.251Z,30.65
2023-06-13T13:27:34.180Z,31.08
2023-06-13T13:28:34.156Z,30.94
2023-06-13T13:29:34.066Z,31.14
2023-06-13T13:30:34.336Z,31.15
2023-06-13T13:31:34.030Z,31.52
2023-06-13T13:32:33.904Z,31.52
2023-06-13T13:33:33.828Z,31.16
2023-06-13T13:34:33.773Z,31.60
2023-06-13T13:35:33.713Z,32.09
2023-06-13T13:36:33.659Z,32.60
2023-06-13T13:37:33.594Z,32.50
2023-06-13T13:38:33.565Z,32.39
2023-06-13T13:39:33.504Z,32.16
2023-06-13T13:40:33.425Z,31.29
2023-06-13T13:41:33.384Z,31.61
2023-06-13T13:42:33.310Z,31.99
2023-06-13T13:43:33.252Z,31.04
2023-06-13T13:44:33.189Z,30.00
2023-06-13T13:45:33.132Z,30.43
2023-06-13T13:46:33.076Z,30.40
2023-06-13T13:47:33.059Z,31.11
2023-06-13T13:48:33.249Z,31.67
2023-06-13T13:49:32.947Z,32.40
2023-06-13T13:50:32.845Z,32.94
2023-06-13T13:51:32.792Z,33.01
2023-06-13T13:52:32.725Z,33.17
2023-06-13T13:53:32.687Z,33.37
2023-06-13T13:54:32.619Z,33.36
2023-06-13T13:55:32.573Z,33.45
2023-06-13T13:56:32.582Z,33.17
2023-06-13T13:57:32.441Z,33.19
2023-06-13T13:58:32.381Z,33.04
2023-06-13T13:59:34.981Z,33.32
2023-06-13T14:00:32.271Z,32.91
2023-06-13T14:01:32.304Z,32.73
2023-06-13T14:02:32.333Z,32.51
2023-06-13T14:03:32.254Z,32.45
2023-06-13T14:04:32.045Z,31.75
2023-06-13T14:05:31.980Z,32.06
2023-06-13T14:06:31.992Z,32.13
2023-06-13T14:07:31.871Z,32.42
2023-06-13T14:08:31.815Z,32.53
2023-06-13T14:09:31.759Z,32.50
2023-06-13T14:10:31.734Z,32.88
2023-06-13T14:14:09.186Z,32.83
2023-06-13T14:15:09.077Z,32.35
2023-06-13T14:16:09.425Z,31.87
2023-06-13T14:17:09.406Z,30.87
2023-06-13T14:18:08.984Z,30.36
2023-06-13T14:20:08.846Z,31.01
2023-06-13T14:21:09.622Z,31.48
2023-06-13T14:22:08.912Z,32.02
2023-06-13T14:23:08.679Z,32.62
2023-06-13T14:24:12.197Z,32.18
2023-06-13T14:26:08.443Z,32.08
2023-06-13T14:27:08.937Z,32.27
2023-06-13T14:28:08.323Z,32.54
2023-06-13T14:29:08.280Z,32.40
2023-06-13T14:30:17.291Z,31.89
2023-06-13T14:31:08.153Z,32.02
2023-06-13T14:32:08.147Z,32.03
2023-06-13T14:33:08.077Z,31.90
2023-06-13T14:34:07.988Z,31.55
2023-06-13T14:35:07.923Z,31.20
2023-06-13T14:37:07.802Z,30.44
2023-06-13T14:38:07.781Z,30.67
2023-06-13T14:39:07.693Z,31.02
2023-06-13T14:40:07.634Z,30.79
2023-06-13T14:41:08.019Z,30.81
2023-06-13T14:42:07.520Z,31.30
2023-06-13T14:43:07.452Z,31.60
2023-06-13T14:44:07.517Z,31.89
2023-06-13T14:45:07.341Z,32.06
2023-06-13T14:46:07.347Z,32.28
2023-06-13T14:47:07.213Z,32.23
2023-06-13T14:48:07.784Z,32.21
2023-06-13T14:49:07.100Z,32.24
2023-06-13T14:50:07.037Z,31.98
2023-06-13T14:51:06.994Z,31.99
2023-06-13T14:52:06.920Z,32.02
2023-06-13T14:53:06.864Z,31.84
2023-06-13T14:54:06.807Z,31.94
2023-06-13T14:55:06.741Z,32.24
2023-06-13T14:56:06.682Z,32.84
2023-06-13T14:57:06.625Z,33.47
2023-06-13T14:58:06.569Z,33.42
2023-06-13T14:59:06.512Z,33.14
2023-06-13T15:00:06.463Z,32.67
2023-06-13T15:01:06.432Z,32.08
2023-06-13T15:02:06.350Z,31.91
2023-06-13T15:03:06.318Z,31.76
2023-06-13T15:04:06.214Z,31.91
2023-06-13T15:05:06.328Z,32.13
2023-06-13T15:06:06.100Z,32.75